sensor_id;sensor_type;location;lat;lon;timestamp;temperature;humidity
20446;DHT22;10382;49.140;9.234;2022-12-29T00:01:27;11.50;99.90
20446;DHT22;10382;49.140;9.234;2022-12-29T00:03:54;11.50;99.90
20446;DHT22;10382;49.140;9.234;2022-12-29T00:06:23;11.60;99.90
20446;DHT22;10382;49.140;9.234;2022-12-29T00:08:50;11.60;99.90
20446;DHT22;10382;49.140;9.234;2022-12-29T00:11:18;11.60;99.90
20446;DHT22;10382;49.140;9.234;2022-12-29T00:13:46;11.60;99.90
20446;DHT22;10382;49.140;9.234;2022-12-29T00:16:31;11.70;99.90
20446;DHT22;10382;49.140;9.234;2022-12-29T00:18:58;11.70;99.90
20446;DHT22;10382;49.140;9.234;2022-12-29T00:21:27;11.70;99.90
20446;DHT22;10382;49.140;9.234;2022-12-29T00:24:15;11.70;99.90
20446;DHT22;10382;49.140;9.234;2022-12-29T00:27:10;11.70;99.90
20446;DHT22;10382;49.140;9.234;2022-12-29T00:29:55;11.70;99.90
20446;DHT22;10382;49.140;9.234;2022-12-29T00:32:44;11.70;99.90
20446;DHT22;10382;49.140;9.234;2022-12-29T00:35:30;11.70;99.90
20446;DHT22;10382;49.140;9.234;2022-12-29T00:38:03;11.80;99.90
20446;DHT22;10382;49.140;9.234;2022-12-29T00:40:48;11.80;99.90
20446;DHT22;10382;49.140;9.234;2022-12-29T00:43:32;11.80;99.90
20446;DHT22;10382;49.140;9.234;2022-12-29T00:46:16;11.70;99.90
20446;DHT22;10382;49.140;9.234;2022-12-29T00:48:43;11.70;99.90
20446;DHT22;10382;49.140;9.234;2022-12-29T00:51:28;11.70;99.90
20446;DHT22;10382;49.140;9.234;2022-12-29T00:53:56;11.70;99.90
20446;DHT22;10382;49.140;9.234;2022-12-29T00:56:23;11.70;99.90
20446;DHT22;10382;49.140;9.234;2022-12-29T00:58:50;11.70;99.90
20446;DHT22;10382;49.140;9.234;2022-12-29T01:01:16;11.70;99.90
20446;DHT22;10382;49.140;9.234;2022-12-29T01:03:43;11.80;99.90
20446;DHT22;10382;49.140;9.234;2022-12-29T01:06:11;11.70;99.90
20446;DHT22;10382;49.140;9.234;2022-12-29T01:08:38;11.70;99.90
20446;DHT22;10382;49.140;9.234;2022-12-29T01:11:08;11.70;99.90
20446;DHT22;10382;49.140;9.234;2022-12-29T01:13:34;11.70;99.90
20446;DHT22;10382;49.140;9.234;2022-12-29T01:16:02;11.80;99.90
20446;DHT22;10382;49.140;9.234;2022-12-29T01:18:29;11.80;99.90
20446;DHT22;10382;49.140;9.234;2022-12-29T01:21:00;11.80;99.90
20446;DHT22;10382;49.140;9.234;2022-12-29T01:23:27;11.90;99.90
20446;DHT22;10382;49.140;9.234;2022-12-29T01:25:54;11.80;99.90
20446;DHT22;10382;49.140;9.234;2022-12-29T01:28:23;11.80;99.90
20446;DHT22;10382;49.140;9.234;2022-12-29T01:30:50;11.80;99.90
20446;DHT22;10382;49.140;9.234;2022-12-29T01:33:17;11.80;99.90
20446;DHT22;10382;49.140;9.234;2022-12-29T01:35:44;11.70;99.90
20446;DHT22;10382;49.140;9.234;2022-12-29T01:38:11;11.70;99.90
20446;DHT22;10382;49.140;9.234;2022-12-29T01:40:44;11.70;99.90
20446;DHT22;10382;49.140;9.234;2022-12-29T01:43:13;11.70;99.90
20446;DHT22;10382;49.140;9.234;2022-12-29T01:45:45;11.70;99.90
20446;DHT22;10382;49.140;9.234;2022-12-29T01:48:15;11.70;99.90
20446;DHT22;10382;49.140;9.234;2022-12-29T01:50:45;11.70;99.90
20446;DHT22;10382;49.140;9.234;2022-12-29T01:53:17;11.80;99.90
20446;DHT22;10382;49.140;9.234;2022-12-29T01:55:48;11.80;99.90
20446;DHT22;10382;49.140;9.234;2022-12-29T01:58:18;11.80;99.90
20446;DHT22;10382;49.140;9.234;2022-12-29T02:00:48;11.80;99.90
20446;DHT22;10382;49.140;9.234;2022-12-29T02:03:15;11.80;99.90
20446;DHT22;10382;49.140;9.234;2022-12-29T02:05:48;11.80;99.90
20446;DHT22;10382;49.140;9.234;2022-12-29T02:08:18;11.80;99.90
20446;DHT22;10382;49.140;9.234;2022-12-29T02:10:46;11.90;99.90
20446;DHT22;10382;49.140;9.234;2022-12-29T02:13:15;11.90;99.90
20446;DHT22;10382;49.140;9.234;2022-12-29T02:15:51;12.00;99.90
20446;DHT22;10382;49.140;9.234;2022-12-29T02:18:28;12.10;99.90
20446;DHT22;10382;49.140;9.234;2022-12-29T02:24:22;12.00;99.90
20446;DHT22;10382;49.140;9.234;2022-12-29T02:27:06;12.00;99.90
20446;DHT22;10382;49.140;9.234;2022-12-29T02:30:03;12.00;99.90
20446;DHT22;10382;49.140;9.234;2022-12-29T02:32:38;12.10;99.90
20446;DHT22;10382;49.140;9.234;2022-12-29T02:35:11;12.10;99.90
20446;DHT22;10382;49.140;9.234;2022-12-29T02:37:42;12.10;99.90
20446;DHT22;10382;49.140;9.234;2022-12-29T02:40:17;12.10;99.90
20446;DHT22;10382;49.140;9.234;2022-12-29T02:42:50;12.10;99.90
20446;DHT22;10382;49.140;9.234;2022-12-29T02:45:22;12.20;99.90
20446;DHT22;10382;49.140;9.234;2022-12-29T02:47:59;12.20;99.90
20446;DHT22;10382;49.140;9.234;2022-12-29T02:50:33;12.30;99.90
20446;DHT22;10382;49.140;9.234;2022-12-29T02:53:04;12.30;99.90
20446;DHT22;10382;49.140;9.234;2022-12-29T02:55:31;12.30;99.90
20446;DHT22;10382;49.140;9.234;2022-12-29T02:58:17;12.20;99.90
20446;DHT22;10382;49.140;9.234;2022-12-29T03:00:54;12.20;99.90
20446;DHT22;10382;49.140;9.234;2022-12-29T03:03:31;12.20;99.90
20446;DHT22;10382;49.140;9.234;2022-12-29T03:06:22;12.20;99.90
20446;DHT22;10382;49.140;9.234;2022-12-29T03:08:58;12.20;99.90
20446;DHT22;10382;49.140;9.234;2022-12-29T03:11:32;12.20;99.90
20446;DHT22;10382;49.140;9.234;2022-12-29T03:14:24;12.20;99.90
20446;DHT22;10382;49.140;9.234;2022-12-29T03:17:18;12.20;99.90
20446;DHT22;10382;49.140;9.234;2022-12-29T03:19:49;12.20;99.90
20446;DHT22;10382;49.140;9.234;2022-12-29T03:22:22;12.30;99.90
20446;DHT22;10382;49.140;9.234;2022-12-29T03:24:59;12.30;99.90
20446;DHT22;10382;49.140;9.234;2022-12-29T03:27:34;12.30;99.90
20446;DHT22;10382;49.140;9.234;2022-12-29T03:30:03;12.40;99.90
20446;DHT22;10382;49.140;9.234;2022-12-29T03:32:33;12.40;99.90
20446;DHT22;10382;49.140;9.234;2022-12-29T03:35:03;12.40;99.90
20446;DHT22;10382;49.140;9.234;2022-12-29T03:37:35;12.40;99.90
20446;DHT22;10382;49.140;9.234;2022-12-29T03:40:04;12.50;99.90
20446;DHT22;10382;49.140;9.234;2022-12-29T03:42:34;12.50;99.90
20446;DHT22;10382;49.140;9.234;2022-12-29T03:45:01;12.50;99.90
20446;DHT22;10382;49.140;9.234;2022-12-29T03:47:30;12.50;99.90
20446;DHT22;10382;49.140;9.234;2022-12-29T03:49:57;12.60;99.90
20446;DHT22;10382;49.140;9.234;2022-12-29T03:52:25;12.60;99.90
20446;DHT22;10382;49.140;9.234;2022-12-29T03:54:52;12.50;99.90
20446;DHT22;10382;49.140;9.234;2022-12-29T03:57:19;12.50;99.90
20446;DHT22;10382;49.140;9.234;2022-12-29T03:59:46;12.40;99.90
20446;DHT22;10382;49.140;9.234;2022-12-29T04:02:13;12.40;99.90
20446;DHT22;10382;49.140;9.234;2022-12-29T04:04:40;12.40;99.90
20446;DHT22;10382;49.140;9.234;2022-12-29T04:07:06;12.30;99.90
20446;DHT22;10382;49.140;9.234;2022-12-29T04:09:35;12.40;99.90
20446;DHT22;10382;49.140;9.234;2022-12-29T04:12:02;12.40;99.90
20446;DHT22;10382;49.140;9.234;2022-12-29T04:14:28;12.40;99.90
20446;DHT22;10382;49.140;9.234;2022-12-29T04:16:55;12.50;99.90
20446;DHT22;10382;49.140;9.234;2022-12-29T04:19:22;12.40;99.90
20446;DHT22;10382;49.140;9.234;2022-12-29T04:21:49;12.40;99.90
20446;DHT22;10382;49.140;9.234;2022-12-29T04:24:16;12.50;99.90
20446;DHT22;10382;49.140;9.234;2022-12-29T04:26:45;12.60;99.90
20446;DHT22;10382;49.140;9.234;2022-12-29T04:29:11;12.60;99.90
20446;DHT22;10382;49.140;9.234;2022-12-29T04:31:38;12.60;99.90
20446;DHT22;10382;49.140;9.234;2022-12-29T04:34:05;12.60;99.90
20446;DHT22;10382;49.140;9.234;2022-12-29T04:36:32;12.60;99.90
20446;DHT22;10382;49.140;9.234;2022-12-29T04:39:00;12.70;99.90
20446;DHT22;10382;49.140;9.234;2022-12-29T04:41:26;12.70;99.90
20446;DHT22;10382;49.140;9.234;2022-12-29T04:43:55;12.70;99.90
20446;DHT22;10382;49.140;9.234;2022-12-29T04:46:21;12.70;99.90
20446;DHT22;10382;49.140;9.234;2022-12-29T04:48:48;12.70;99.90
20446;DHT22;10382;49.140;9.234;2022-12-29T04:51:15;12.70;99.90
20446;DHT22;10382;49.140;9.234;2022-12-29T04:53:42;12.80;99.90
20446;DHT22;10382;49.140;9.234;2022-12-29T04:56:09;12.80;99.90
20446;DHT22;10382;49.140;9.234;2022-12-29T04:58:36;12.80;99.90
20446;DHT22;10382;49.140;9.234;2022-12-29T05:01:04;12.80;99.90
20446;DHT22;10382;49.140;9.234;2022-12-29T05:03:31;12.90;99.90
20446;DHT22;10382;49.140;9.234;2022-12-29T05:05:57;12.90;99.90
20446;DHT22;10382;49.140;9.234;2022-12-29T05:08:24;12.90;99.90
20446;DHT22;10382;49.140;9.234;2022-12-29T05:10:52;12.90;99.90
20446;DHT22;10382;49.140;9.234;2022-12-29T05:13:18;12.90;99.90
20446;DHT22;10382;49.140;9.234;2022-12-29T05:15:49;12.90;99.90
20446;DHT22;10382;49.140;9.234;2022-12-29T05:18:18;12.90;99.90
20446;DHT22;10382;49.140;9.234;2022-12-29T05:20:45;12.90;99.90
20446;DHT22;10382;49.140;9.234;2022-12-29T05:23:12;12.90;99.90
20446;DHT22;10382;49.140;9.234;2022-12-29T05:25:39;12.80;99.90
20446;DHT22;10382;49.140;9.234;2022-12-29T05:28:06;12.80;99.90
20446;DHT22;10382;49.140;9.234;2022-12-29T05:30:33;12.80;99.90
20446;DHT22;10382;49.140;9.234;2022-12-29T05:33:00;12.80;99.90
20446;DHT22;10382;49.140;9.234;2022-12-29T05:35:28;12.80;99.90
20446;DHT22;10382;49.140;9.234;2022-12-29T05:37:55;12.80;99.90
20446;DHT22;10382;49.140;9.234;2022-12-29T05:40:22;12.80;99.90
20446;DHT22;10382;49.140;9.234;2022-12-29T05:42:49;12.90;99.90
20446;DHT22;10382;49.140;9.234;2022-12-29T05:45:15;12.80;99.90
20446;DHT22;10382;49.140;9.234;2022-12-29T05:47:42;12.80;99.90
20446;DHT22;10382;49.140;9.234;2022-12-29T05:50:09;12.80;99.90
20446;DHT22;10382;49.140;9.234;2022-12-29T05:52:37;12.80;99.90
20446;DHT22;10382;49.140;9.234;2022-12-29T05:55:05;12.80;99.90
20446;DHT22;10382;49.140;9.234;2022-12-29T05:57:32;12.70;99.90
20446;DHT22;10382;49.140;9.234;2022-12-29T05:59:59;12.70;99.90
20446;DHT22;10382;49.140;9.234;2022-12-29T06:02:26;12.60;99.90
20446;DHT22;10382;49.140;9.234;2022-12-29T06:04:53;12.70;99.90
20446;DHT22;10382;49.140;9.234;2022-12-29T06:07:20;12.70;99.90
20446;DHT22;10382;49.140;9.234;2022-12-29T06:09:48;12.70;99.90
20446;DHT22;10382;49.140;9.234;2022-12-29T06:12:15;12.80;99.90
20446;DHT22;10382;49.140;9.234;2022-12-29T06:14:41;12.80;99.90
20446;DHT22;10382;49.140;9.234;2022-12-29T06:17:08;12.80;99.90
20446;DHT22;10382;49.140;9.234;2022-12-29T06:19:35;12.90;99.90
20446;DHT22;10382;49.140;9.234;2022-12-29T06:22:02;12.90;99.90
20446;DHT22;10382;49.140;9.234;2022-12-29T06:24:30;12.90;99.90
20446;DHT22;10382;49.140;9.234;2022-12-29T06:26:58;12.90;99.90
20446;DHT22;10382;49.140;9.234;2022-12-29T06:29:25;13.00;99.90
20446;DHT22;10382;49.140;9.234;2022-12-29T06:31:52;13.00;99.90
20446;DHT22;10382;49.140;9.234;2022-12-29T06:34:21;13.00;99.90
20446;DHT22;10382;49.140;9.234;2022-12-29T06:36:48;13.00;99.90
20446;DHT22;10382;49.140;9.234;2022-12-29T06:39:15;13.10;99.90
20446;DHT22;10382;49.140;9.234;2022-12-29T06:41:42;13.10;99.90
20446;DHT22;10382;49.140;9.234;2022-12-29T06:44:10;13.10;99.90
20446;DHT22;10382;49.140;9.234;2022-12-29T06:46:37;13.00;99.90
20446;DHT22;10382;49.140;9.234;2022-12-29T06:49:04;13.00;99.90
20446;DHT22;10382;49.140;9.234;2022-12-29T06:51:31;12.90;99.90
20446;DHT22;10382;49.140;9.234;2022-12-29T06:53:57;12.90;99.90
20446;DHT22;10382;49.140;9.234;2022-12-29T06:56:24;12.90;99.90
20446;DHT22;10382;49.140;9.234;2022-12-29T06:58:51;12.90;99.90
20446;DHT22;10382;49.140;9.234;2022-12-29T07:01:19;13.00;99.90
20446;DHT22;10382;49.140;9.234;2022-12-29T07:03:46;13.00;99.90
20446;DHT22;10382;49.140;9.234;2022-12-29T07:06:13;13.00;99.90
20446;DHT22;10382;49.140;9.234;2022-12-29T07:08:40;13.00;99.90
20446;DHT22;10382;49.140;9.234;2022-12-29T07:11:07;13.00;99.90
20446;DHT22;10382;49.140;9.234;2022-12-29T07:13:34;13.10;99.90
20446;DHT22;10382;49.140;9.234;2022-12-29T07:16:05;13.10;99.90
20446;DHT22;10382;49.140;9.234;2022-12-29T07:18:33;13.00;99.90
20446;DHT22;10382;49.140;9.234;2022-12-29T07:21:00;13.10;99.90
20446;DHT22;10382;49.140;9.234;2022-12-29T07:23:27;13.10;99.90
20446;DHT22;10382;49.140;9.234;2022-12-29T07:25:59;13.10;99.90
20446;DHT22;10382;49.140;9.234;2022-12-29T07:28:26;13.10;99.90
20446;DHT22;10382;49.140;9.234;2022-12-29T07:30:53;13.10;99.90
20446;DHT22;10382;49.140;9.234;2022-12-29T07:33:20;13.10;99.90
20446;DHT22;10382;49.140;9.234;2022-12-29T07:35:48;13.10;99.90
20446;DHT22;10382;49.140;9.234;2022-12-29T07:38:15;13.10;99.90
20446;DHT22;10382;49.140;9.234;2022-12-29T07:40:42;13.20;99.90
20446;DHT22;10382;49.140;9.234;2022-12-29T07:43:09;13.20;99.90
20446;DHT22;10382;49.140;9.234;2022-12-29T07:45:35;13.20;99.90
20446;DHT22;10382;49.140;9.234;2022-12-29T07:48:03;13.30;99.90
20446;DHT22;10382;49.140;9.234;2022-12-29T07:50:31;13.30;99.90
20446;DHT22;10382;49.140;9.234;2022-12-29T07:52:59;13.30;99.90
20446;DHT22;10382;49.140;9.234;2022-12-29T07:55:26;13.30;99.90
20446;DHT22;10382;49.140;9.234;2022-12-29T07:57:53;13.30;99.90
20446;DHT22;10382;49.140;9.234;2022-12-29T08:00:20;13.40;99.90
20446;DHT22;10382;49.140;9.234;2022-12-29T08:02:47;13.40;99.90
20446;DHT22;10382;49.140;9.234;2022-12-29T08:05:14;13.40;99.90
20446;DHT22;10382;49.140;9.234;2022-12-29T08:07:42;13.40;99.90
20446;DHT22;10382;49.140;9.234;2022-12-29T08:10:11;13.40;99.90
20446;DHT22;10382;49.140;9.234;2022-12-29T08:12:38;13.40;99.90
20446;DHT22;10382;49.140;9.234;2022-12-29T08:15:07;13.50;99.90
20446;DHT22;10382;49.140;9.234;2022-12-29T08:17:34;13.50;99.90
20446;DHT22;10382;49.140;9.234;2022-12-29T08:20:02;13.50;99.90
20446;DHT22;10382;49.140;9.234;2022-12-29T08:22:29;13.50;99.90
20446;DHT22;10382;49.140;9.234;2022-12-29T08:24:55;13.40;99.90
20446;DHT22;10382;49.140;9.234;2022-12-29T08:27:24;13.40;99.90
20446;DHT22;10382;49.140;9.234;2022-12-29T08:29:51;13.50;99.90
20446;DHT22;10382;49.140;9.234;2022-12-29T08:32:18;13.40;99.90
20446;DHT22;10382;49.140;9.234;2022-12-29T08:34:45;13.50;99.90
20446;DHT22;10382;49.140;9.234;2022-12-29T08:37:12;13.40;99.90
20446;DHT22;10382;49.140;9.234;2022-12-29T08:39:39;13.50;99.90
20446;DHT22;10382;49.140;9.234;2022-12-29T08:42:06;13.50;99.90
20446;DHT22;10382;49.140;9.234;2022-12-29T08:44:34;13.50;99.90
20446;DHT22;10382;49.140;9.234;2022-12-29T08:47:01;13.40;99.90
20446;DHT22;10382;49.140;9.234;2022-12-29T08:49:28;13.40;99.90
20446;DHT22;10382;49.140;9.234;2022-12-29T08:51:54;13.40;99.90
20446;DHT22;10382;49.140;9.234;2022-12-29T08:54:21;13.40;99.90
20446;DHT22;10382;49.140;9.234;2022-12-29T08:56:48;13.40;99.90
20446;DHT22;10382;49.140;9.234;2022-12-29T08:59:15;13.50;99.90
20446;DHT22;10382;49.140;9.234;2022-12-29T09:01:43;13.50;99.90
20446;DHT22;10382;49.140;9.234;2022-12-29T09:04:10;13.50;99.90
20446;DHT22;10382;49.140;9.234;2022-12-29T09:06:37;13.50;99.90
20446;DHT22;10382;49.140;9.234;2022-12-29T09:09:04;13.60;99.90
20446;DHT22;10382;49.140;9.234;2022-12-29T09:11:31;13.60;99.90
20446;DHT22;10382;49.140;9.234;2022-12-29T09:13:58;13.60;99.90
20446;DHT22;10382;49.140;9.234;2022-12-29T09:16:25;13.60;99.90
20446;DHT22;10382;49.140;9.234;2022-12-29T09:18:53;13.70;99.90
20446;DHT22;10382;49.140;9.234;2022-12-29T09:21:20;13.90;99.90
20446;DHT22;10382;49.140;9.234;2022-12-29T09:23:48;14.10;99.90
20446;DHT22;10382;49.140;9.234;2022-12-29T09:26:15;14.20;99.90
20446;DHT22;10382;49.140;9.234;2022-12-29T09:28:42;14.30;99.90
20446;DHT22;10382;49.140;9.234;2022-12-29T09:31:10;14.00;99.90
20446;DHT22;10382;49.140;9.234;2022-12-29T09:33:37;13.80;99.90
20446;DHT22;10382;49.140;9.234;2022-12-29T09:36:05;13.70;99.90
20446;DHT22;10382;49.140;9.234;2022-12-29T09:38:32;13.60;99.90
20446;DHT22;10382;49.140;9.234;2022-12-29T09:41:02;13.60;99.90
20446;DHT22;10382;49.140;9.234;2022-12-29T09:43:56;13.60;99.90
20446;DHT22;10382;49.140;9.234;2022-12-29T09:46:26;13.60;99.90
20446;DHT22;10382;49.140;9.234;2022-12-29T09:49:00;13.60;99.90
20446;DHT22;10382;49.140;9.234;2022-12-29T09:51:33;13.60;99.90
20446;DHT22;10382;49.140;9.234;2022-12-29T09:54:10;13.70;99.90
20446;DHT22;10382;49.140;9.234;2022-12-29T09:56:43;13.70;99.90
20446;DHT22;10382;49.140;9.234;2022-12-29T09:59:15;13.80;99.90
20446;DHT22;10382;49.140;9.234;2022-12-29T10:01:49;13.80;99.90
20446;DHT22;10382;49.140;9.234;2022-12-29T10:04:18;13.80;99.90
20446;DHT22;10382;49.140;9.234;2022-12-29T10:06:51;13.80;99.90
20446;DHT22;10382;49.140;9.234;2022-12-29T10:09:23;13.70;99.90
20446;DHT22;10382;49.140;9.234;2022-12-29T10:12:03;13.70;99.90
20446;DHT22;10382;49.140;9.234;2022-12-29T10:14:49;13.70;99.90
20446;DHT22;10382;49.140;9.234;2022-12-29T10:17:27;13.70;99.90
20446;DHT22;10382;49.140;9.234;2022-12-29T10:20:07;13.70;99.90
20446;DHT22;10382;49.140;9.234;2022-12-29T10:22:49;13.80;99.90
20446;DHT22;10382;49.140;9.234;2022-12-29T10:25:21;14.00;99.90
20446;DHT22;10382;49.140;9.234;2022-12-29T10:27:50;14.10;99.90
20446;DHT22;10382;49.140;9.234;2022-12-29T10:30:18;14.20;99.90
20446;DHT22;10382;49.140;9.234;2022-12-29T10:32:49;14.30;99.90
20446;DHT22;10382;49.140;9.234;2022-12-29T10:35:21;14.30;99.90
20446;DHT22;10382;49.140;9.234;2022-12-29T10:37:53;14.40;99.90
20446;DHT22;10382;49.140;9.234;2022-12-29T10:40:26;14.50;99.90
20446;DHT22;10382;49.140;9.234;2022-12-29T10:42:55;14.60;99.90
20446;DHT22;10382;49.140;9.234;2022-12-29T10:45:25;14.70;99.90
20446;DHT22;10382;49.140;9.234;2022-12-29T10:47:58;14.70;99.90
20446;DHT22;10382;49.140;9.234;2022-12-29T10:50:27;14.80;99.90
20446;DHT22;10382;49.140;9.234;2022-12-29T10:52:58;14.70;99.90
20446;DHT22;10382;49.140;9.234;2022-12-29T10:55:29;14.60;99.90
20446;DHT22;10382;49.140;9.234;2022-12-29T10:58:00;14.70;99.90
20446;DHT22;10382;49.140;9.234;2022-12-29T11:00:30;14.80;99.90
20446;DHT22;10382;49.140;9.234;2022-12-29T11:03:16;15.20;99.90
20446;DHT22;10382;49.140;9.234;2022-12-29T11:05:52;15.70;99.90
20446;DHT22;10382;49.140;9.234;2022-12-29T11:08:26;16.20;99.90
20446;DHT22;10382;49.140;9.234;2022-12-29T11:10:59;16.10;99.90
20446;DHT22;10382;49.140;9.234;2022-12-29T11:13:28;15.80;99.90
20446;DHT22;10382;49.140;9.234;2022-12-29T11:15:55;15.60;99.90
20446;DHT22;10382;49.140;9.234;2022-12-29T11:18:24;15.30;99.90
20446;DHT22;10382;49.140;9.234;2022-12-29T11:20:53;15.10;99.90
20446;DHT22;10382;49.140;9.234;2022-12-29T11:23:30;14.90;99.90
20446;DHT22;10382;49.140;9.234;2022-12-29T11:26:14;14.90;99.90
20446;DHT22;10382;49.140;9.234;2022-12-29T11:28:47;14.70;99.90
20446;DHT22;10382;49.140;9.234;2022-12-29T11:31:22;14.60;99.90
20446;DHT22;10382;49.140;9.234;2022-12-29T11:33:51;14.50;99.90
20446;DHT22;10382;49.140;9.234;2022-12-29T11:36:23;14.40;99.90
20446;DHT22;10382;49.140;9.234;2022-12-29T11:38:56;14.30;99.90
20446;DHT22;10382;49.140;9.234;2022-12-29T11:41:28;14.20;99.90
20446;DHT22;10382;49.140;9.234;2022-12-29T11:43:58;14.20;99.90
20446;DHT22;10382;49.140;9.234;2022-12-29T11:46:28;14.20;99.90
20446;DHT22;10382;49.140;9.234;2022-12-29T11:48:58;14.20;99.90
20446;DHT22;10382;49.140;9.234;2022-12-29T11:51:32;14.20;99.90
20446;DHT22;10382;49.140;9.234;2022-12-29T11:54:05;14.20;99.90
20446;DHT22;10382;49.140;9.234;2022-12-29T11:56:35;14.20;99.90
20446;DHT22;10382;49.140;9.234;2022-12-29T11:59:40;14.30;99.90
20446;DHT22;10382;49.140;9.234;2022-12-29T12:07:57;14.50;99.90
20446;DHT22;10382;49.140;9.234;2022-12-29T12:10:32;14.50;99.90
20446;DHT22;10382;49.140;9.234;2022-12-29T12:13:14;14.60;99.90
20446;DHT22;10382;49.140;9.234;2022-12-29T12:15:46;14.70;99.90
20446;DHT22;10382;49.140;9.234;2022-12-29T12:18:21;14.70;99.90
20446;DHT22;10382;49.140;9.234;2022-12-29T12:20:54;14.70;99.90
20446;DHT22;10382;49.140;9.234;2022-12-29T12:23:38;15.00;99.90
20446;DHT22;10382;49.140;9.234;2022-12-29T12:26:12;15.10;99.90
20446;DHT22;10382;49.140;9.234;2022-12-29T12:28:48;15.30;99.90
20446;DHT22;10382;49.140;9.234;2022-12-29T12:31:25;15.50;99.90
20446;DHT22;10382;49.140;9.234;2022-12-29T12:33:59;15.50;99.90
20446;DHT22;10382;49.140;9.234;2022-12-29T12:36:51;15.30;99.90
20446;DHT22;10382;49.140;9.234;2022-12-29T12:39:29;15.10;99.90
20446;DHT22;10382;49.140;9.234;2022-12-29T12:42:11;14.90;99.90
20446;DHT22;10382;49.140;9.234;2022-12-29T12:44:51;14.70;99.90
20446;DHT22;10382;49.140;9.234;2022-12-29T12:47:46;14.60;99.90
20446;DHT22;10382;49.140;9.234;2022-12-29T12:50:38;14.70;99.90
20446;DHT22;10382;49.140;9.234;2022-12-29T12:53:34;14.70;99.90
20446;DHT22;10382;49.140;9.234;2022-12-29T12:56:26;14.80;99.90
20446;DHT22;10382;49.140;9.234;2022-12-29T12:59:03;14.80;99.90
20446;DHT22;10382;49.140;9.234;2022-12-29T13:01:41;14.80;99.90
20446;DHT22;10382;49.140;9.234;2022-12-29T13:04:29;14.70;99.90
20446;DHT22;10382;49.140;9.234;2022-12-29T13:07:12;14.80;99.90
20446;DHT22;10382;49.140;9.234;2022-12-29T13:09:58;14.80;99.90
20446;DHT22;10382;49.140;9.234;2022-12-29T13:12:36;14.90;99.90
20446;DHT22;10382;49.140;9.234;2022-12-29T13:15:17;14.70;99.90
20446;DHT22;10382;49.140;9.234;2022-12-29T13:17:51;14.60;99.90
20446;DHT22;10382;49.140;9.234;2022-12-29T13:20:27;14.40;99.90
20446;DHT22;10382;49.140;9.234;2022-12-29T13:23:05;14.30;99.90
20446;DHT22;10382;49.140;9.234;2022-12-29T13:25:42;14.30;99.90
20446;DHT22;10382;49.140;9.234;2022-12-29T13:28:18;14.30;99.90
20446;DHT22;10382;49.140;9.234;2022-12-29T13:30:55;14.50;99.90
20446;DHT22;10382;49.140;9.234;2022-12-29T13:33:31;15.20;99.90
20446;DHT22;10382;49.140;9.234;2022-12-29T13:36:05;15.60;99.90
20446;DHT22;10382;49.140;9.234;2022-12-29T13:38:37;16.00;99.90
20446;DHT22;10382;49.140;9.234;2022-12-29T13:41:08;16.40;99.90
20446;DHT22;10382;49.140;9.234;2022-12-29T13:43:40;16.60;99.90
20446;DHT22;10382;49.140;9.234;2022-12-29T13:46:15;16.20;99.90
20446;DHT22;10382;49.140;9.234;2022-12-29T13:48:49;15.40;99.90
20446;DHT22;10382;49.140;9.234;2022-12-29T13:51:18;15.10;99.90
20446;DHT22;10382;49.140;9.234;2022-12-29T13:53:59;14.90;99.90
20446;DHT22;10382;49.140;9.234;2022-12-29T13:56:34;14.90;99.90
20446;DHT22;10382;49.140;9.234;2022-12-29T13:59:08;14.80;99.90
20446;DHT22;10382;49.140;9.234;2022-12-29T14:01:46;14.70;99.90
20446;DHT22;10382;49.140;9.234;2022-12-29T14:04:22;14.50;99.90
20446;DHT22;10382;49.140;9.234;2022-12-29T14:07:00;14.40;99.90
20446;DHT22;10382;49.140;9.234;2022-12-29T14:09:40;14.30;99.90
20446;DHT22;10382;49.140;9.234;2022-12-29T14:12:21;14.30;99.90
20446;DHT22;10382;49.140;9.234;2022-12-29T14:14:49;14.20;99.90
20446;DHT22;10382;49.140;9.234;2022-12-29T14:17:21;14.00;99.90
20446;DHT22;10382;49.140;9.234;2022-12-29T14:19:52;13.90;99.90
20446;DHT22;10382;49.140;9.234;2022-12-29T14:22:31;13.80;99.90
20446;DHT22;10382;49.140;9.234;2022-12-29T14:25:00;13.60;99.90
20446;DHT22;10382;49.140;9.234;2022-12-29T14:27:53;13.50;99.90
20446;DHT22;10382;49.140;9.234;2022-12-29T14:30:46;13.30;99.90
20446;DHT22;10382;49.140;9.234;2022-12-29T14:33:25;13.20;99.90
20446;DHT22;10382;49.140;9.234;2022-12-29T14:35:56;12.90;99.90
20446;DHT22;10382;49.140;9.234;2022-12-29T14:38:28;12.60;99.90
20446;DHT22;10382;49.140;9.234;2022-12-29T14:41:23;12.40;99.90
20446;DHT22;10382;49.140;9.234;2022-12-29T14:43:55;12.30;99.90
20446;DHT22;10382;49.140;9.234;2022-12-29T14:46:25;12.30;99.90
20446;DHT22;10382;49.140;9.234;2022-12-29T14:49:16;12.20;99.90
20446;DHT22;10382;49.140;9.234;2022-12-29T14:51:46;12.20;99.90
20446;DHT22;10382;49.140;9.234;2022-12-29T14:54:43;12.20;99.90
20446;DHT22;10382;49.140;9.234;2022-12-29T14:57:20;12.20;99.90
20446;DHT22;10382;49.140;9.234;2022-12-29T14:59:48;12.20;99.90
20446;DHT22;10382;49.140;9.234;2022-12-29T15:02:23;12.20;99.90
20446;DHT22;10382;49.140;9.234;2022-12-29T15:04:59;12.20;99.90
20446;DHT22;10382;49.140;9.234;2022-12-29T15:07:27;12.30;99.90
20446;DHT22;10382;49.140;9.234;2022-12-29T15:10:00;12.30;99.90
20446;DHT22;10382;49.140;9.234;2022-12-29T15:12:36;12.30;99.90
20446;DHT22;10382;49.140;9.234;2022-12-29T15:15:22;12.30;99.90
20446;DHT22;10382;49.140;9.234;2022-12-29T15:17:51;12.30;99.90
20446;DHT22;10382;49.140;9.234;2022-12-29T15:20:26;12.30;99.90
20446;DHT22;10382;49.140;9.234;2022-12-29T15:22:56;12.20;99.90
20446;DHT22;10382;49.140;9.234;2022-12-29T15:25:28;12.10;99.90
20446;DHT22;10382;49.140;9.234;2022-12-29T15:28:01;12.00;99.90
20446;DHT22;10382;49.140;9.234;2022-12-29T15:30:29;11.80;99.90
20446;DHT22;10382;49.140;9.234;2022-12-29T15:32:56;11.60;99.90
20446;DHT22;10382;49.140;9.234;2022-12-29T15:35:31;11.50;99.90
20446;DHT22;10382;49.140;9.234;2022-12-29T15:37:58;11.30;99.90
20446;DHT22;10382;49.140;9.234;2022-12-29T15:40:28;11.30;99.90
20446;DHT22;10382;49.140;9.234;2022-12-29T15:45:46;11.10;99.90
20446;DHT22;10382;49.140;9.234;2022-12-29T15:48:18;11.10;99.90
20446;DHT22;10382;49.140;9.234;2022-12-29T15:50:48;11.10;99.90
20446;DHT22;10382;49.140;9.234;2022-12-29T15:53:19;11.10;99.90
20446;DHT22;10382;49.140;9.234;2022-12-29T15:55:50;11.10;99.90
20446;DHT22;10382;49.140;9.234;2022-12-29T15:58:21;11.10;99.90
20446;DHT22;10382;49.140;9.234;2022-12-29T16:00:50;11.10;99.90
20446;DHT22;10382;49.140;9.234;2022-12-29T16:03:19;11.10;99.90
20446;DHT22;10382;49.140;9.234;2022-12-29T16:05:52;11.10;99.90
20446;DHT22;10382;49.140;9.234;2022-12-29T16:08:33;11.20;99.90
20446;DHT22;10382;49.140;9.234;2022-12-29T16:11:17;11.20;99.90